Time;durP1;ratioP1;P1;durP2;ratioP2;P2;SDS_P1;SDS_P2;PMS_P1;PMS_P2;Temp;Humidity;BMP_temperature;BMP_pressure;BME280_temperature;BME280_humidity;BME280_pressure;Samples;Min_cycle;Max_cycle;Signal;HPM_P1;HPM_P2
2023/02/20 00:00:10;;;;;;;7.80;3.30;;;;;;;1.17;76.26;100550.39;107376;1257;95622;-57
2023/02/20 00:03:09;;;;;;;14.10;4.40;;;;;;;1.19;76.33;100553.27;107355;1254;79199;-57
2023/02/20 00:05:50;;;;;;;12.50;4.00;;;;;;;1.21;76.17;100549.61;107368;1254;82728;-57
2023/02/20 00:08:28;;;;;;;12.00;4.00;;;;;;;1.20;76.21;100542.73;107369;1254;99033;-58
2023/02/20 00:11:08;;;;;;;14.90;5.30;;;;;;;1.22;76.25;100541.88;107415;1254;89556;-57
2023/02/20 00:13:48;;;;;;;14.40;5.20;;;;;;;1.21;76.27;100536.84;107406;1254;94056;-56
2023/02/20 00:16:28;;;;;;;13.00;4.50;;;;;;;1.24;76.16;100532.14;107415;1254;77910;-57
2023/02/20 00:19:10;;;;;;;13.50;6.10;;;;;;;1.25;76.34;100529.39;107410;1254;81946;-56
2023/02/20 00:21:50;;;;;;;8.70;5.10;;;;;;;1.29;76.30;100526.36;107371;1254;99213;-56
2023/02/20 00:24:28;;;;;;;10.70;3.50;;;;;;;1.31;76.26;100523.89;107389;1254;88873;-56
2023/02/20 00:27:11;;;;;;;10.50;3.60;;;;;;;1.33;76.18;100521.65;107377;1255;95027;-56
2023/02/20 00:29:50;;;;;;;7.80;3.40;;;;;;;1.33;76.20;100525.37;107374;1254;80546;-62
2023/02/20 00:32:33;;;;;;;8.70;3.20;;;;;;;1.32;76.10;100533.08;107397;1254;82509;-62
2023/02/20 00:35:16;;;;;;;7.00;2.40;;;;;;;1.30;76.10;100529.72;107396;1254;98560;-58
2023/02/20 00:38:00;;;;;;;7.80;3.50;;;;;;;1.26;76.00;100523.08;107371;1254;88162;-57
2023/02/20 00:40:44;;;;;;;13.10;5.00;;;;;;;1.22;75.94;100529.84;107381;1254;94478;-56
2023/02/20 00:43:30;;;;;;;15.60;5.60;;;;;;;1.17;76.00;100526.50;107373;1254;78824;-61
2023/02/20 00:46:06;;;;;;;15.30;4.90;;;;;;;1.14;76.04;100527.80;107404;1253;80821;-62
2023/02/20 00:48:43;;;;;;;11.90;4.50;;;;;;;1.13;76.20;100537.63;107375;1254;97935;-59
2023/02/20 00:51:23;;;;;;;9.50;3.10;;;;;;;1.15;76.28;100534.50;107406;1254;88169;-59
2023/02/20 00:54:00;;;;;;;9.40;3.60;;;;;;;1.18;76.18;100532.48;107403;1254;95911;-57
2023/02/20 00:56:42;;;;;;;10.70;3.90;;;;;;;1.18;76.27;100530.98;107424;1254;79082;-58
2023/02/20 00:59:17;;;;;;;11.30;3.70;;;;;;;1.19;76.25;100531.48;107225;1254;81333;-62
2023/02/20 01:01:53;;;;;;;9.60;3.40;;;;;;;1.19;76.29;100528.96;107410;1254;97711;-62
2023/02/20 01:04:33;;;;;;;12.40;3.40;;;;;;;1.15;76.34;100526.79;107426;1254;86826;-57
2023/02/20 01:07:18;;;;;;;9.50;3.70;;;;;;;1.12;76.33;100519.98;107359;1254;95023;-57
2023/02/20 01:09:53;;;;;;;8.90;3.30;;;;;;;1.08;76.26;100516.06;107405;1254;81381;-59
2023/02/20 01:12:32;;;;;;;10.40;3.00;;;;;;;1.03;76.30;100520.91;107372;1254;83663;-60
2023/02/20 01:15:11;;;;;;;7.30;3.40;;;;;;;0.99;76.24;100521.98;107391;1254;98109;-57
2023/02/20 01:17:57;;;;;;;8.60;3.40;;;;;;;0.96;76.37;100523.08;107437;1254;87954;-57
2023/02/20 01:20:36;;;;;;;9.80;3.50;;;;;;;0.95;76.30;100521.04;107352;1257;93864;-60
2023/02/20 01:23:16;;;;;;;11.70;3.00;;;;;;;0.92;76.46;100521.81;107384;1254;78384;-59
2023/02/20 01:25:53;;;;;;;11.20;3.50;;;;;;;0.90;76.48;100512.42;107366;1254;83342;-56
2023/02/20 01:28:38;;;;;;;8.50;3.60;;;;;;;0.89;76.39;100507.16;107378;1254;98982;-60
2023/02/20 01:31:16;;;;;;;9.30;3.00;;;;;;;0.87;76.46;100500.77;107414;1254;87414;-60
2023/02/20 01:33:59;;;;;;;6.60;2.80;;;;;;;0.86;76.47;100501.23;107375;1258;95026;-58
2023/02/20 01:36:38;;;;;;;5.80;2.40;;;;;;;0.87;76.58;100502.42;107384;1255;79605;-57
2023/02/20 01:39:19;;;;;;;8.50;3.20;;;;;;;0.89;76.66;100498.16;107413;1255;82279;-57
2023/02/20 01:42:01;;;;;;;6.50;2.50;;;;;;;0.93;76.69;100497.61;107394;1254;98627;-56
2023/02/20 01:44:41;;;;;;;8.60;2.90;;;;;;;0.98;76.75;100501.11;107399;1254;89471;-59
2023/02/20 01:47:18;;;;;;;10.50;3.60;;;;;;;1.02;76.72;100507.38;107345;1254;93642;-60
2023/02/20 01:49:58;;;;;;;9.30;2.50;;;;;;;1.07;76.80;100509.80;107220;1254;77640;-58
2023/02/20 01:52:37;;;;;;;7.60;2.40;;;;;;;1.08;76.67;100506.34;107392;1254;82352;-58
2023/02/20 01:55:25;;;;;;;8.90;3.10;;;;;;;1.08;76.56;100498.86;107432;1254;99232;-57
2023/02/20 01:58:09;;;;;;;7.50;3.00;;;;;;;1.05;76.70;100491.67;107361;1254;87681;-56
2023/02/20 02:00:46;;;;;;;5.90;2.40;;;;;;;1.00;76.70;100489.25;107383;1254;95592;-61
2023/02/20 02:03:28;;;;;;;10.30;3.40;;;;;;;0.96;76.65;100489.38;107411;1254;81621;-59
2023/02/20 02:06:08;;;;;;;6.70;2.40;;;;;;;0.93;76.73;100486.27;107419;1254;83187;-58
2023/02/20 02:08:57;;;;;;;9.30;2.10;;;;;;;0.94;76.81;100485.89;107374;1254;99308;-60
2023/02/20 02:11:37;;;;;;;4.70;2.00;;;;;;;0.97;76.84;100491.44;107379;1254;88140;-61
2023/02/20 02:14:22;;;;;;;6.00;2.40;;;;;;;1.02;76.80;100492.60;107356;1254;95514;-59
2023/02/20 02:17:47;;;;;;;6.80;2.40;;;;;;;1.06;76.84;100481.85;107360;1254;78990;-60
2023/02/20 02:21:09;;;;;;;8.20;1.70;;;;;;;1.10;76.86;100475.11;107396;1254;80536;-60
2023/02/20 02:24:24;;;;;;;3.80;1.60;;;;;;;1.12;76.77;100476.03;107409;1254;98216;-59
2023/02/20 02:27:41;;;;;;;5.80;2.30;;;;;;;1.11;76.84;100475.79;107381;1254;88986;-57
2023/02/20 02:31:31;;;;;;;5.60;2.20;;;;;;;1.08;76.77;100474.20;107314;1254;94579;-56
2023/02/20 02:34:46;;;;;;;7.40;1.90;;;;;;;1.10;76.72;100483.76;107374;1254;80374;-61
2023/02/20 02:37:31;;;;;;;4.60;2.20;;;;;;;1.12;76.69;100488.40;107391;1254;81558;-61
2023/02/20 02:40:16;;;;;;;6.30;2.00;;;;;;;1.14;76.66;100485.95;107398;1254;99384;-59
2023/02/20 02:43:00;;;;;;;6.20;1.70;;;;;;;1.16;76.85;100478.13;107365;1254;87548;-58
2023/02/20 02:45:47;;;;;;;5.00;1.80;;;;;;;1.19;76.72;100476.81;107352;1254;94552;-58
2023/02/20 02:48:31;;;;;;;5.40;1.60;;;;;;;1.20;76.72;100478.00;107392;1254;79381;-60
2023/02/20 02:51:14;;;;;;;7.00;1.90;;;;;;;1.18;76.62;100480.14;107368;1254;83219;-59
2023/02/20 02:54:21;;;;;;;4.50;1.80;;;;;;;1.18;76.68;100479.98;107400;1254;97902;-57
2023/02/20 02:57:23;;;;;;;7.40;2.30;;;;;;;1.15;76.66;100485.83;107379;1255;89511;-57
2023/02/20 03:00:07;;;;;;;8.00;2.00;;;;;;;1.12;76.73;100485.05;107362;1254;95745;-57
2023/02/20 03:02:50;;;;;;;4.80;1.50;;;;;;;1.11;76.67;100482.86;107230;1254;82016;-57
2023/02/20 03:05:39;;;;;;;7.00;1.80;;;;;;;1.10;76.68;100481.66;107385;1254;83432;-58
2023/02/20 03:08:31;;;;;;;3.80;1.90;;;;;;;1.12;76.76;100474.58;107354;1254;99465;-61
2023/02/20 03:11:09;;;;;;;5.10;2.00;;;;;;;1.14;76.82;100472.98;107390;1254;88574;-57
2023/02/20 03:17:02;;;;;;;7.60;2.10;;;;;;;1.18;76.92;100485.30;107349;1254;79758;-58
2023/02/20 03:19:41;;;;;;;7.20;2.70;;;;;;;1.16;76.79;100477.77;107372;1254;83377;-63
2023/02/20 03:22:24;;;;;;;7.50;2.10;;;;;;;1.14;76.85;100474.64;107351;1254;98665;-62
2023/02/20 03:25:06;;;;;;;8.10;2.30;;;;;;;1.12;76.84;100476.69;107343;1254;87659;-61
2023/02/20 03:27:57;;;;;;;5.60;2.70;;;;;;;1.11;76.83;100471.48;107366;1254;95687;-62
2023/02/20 03:30:46;;;;;;;6.30;3.40;;;;;;;1.08;76.78;100475.59;107409;1255;80050;-57
2023/02/20 03:45:45;;;;;;;7.00;3.00;;;;;;;1.02;77.21;100472.95;107377;1255;78227;-57
2023/02/20 03:48:36;;;;;;;6.30;2.80;;;;;;;0.96;77.28;100471.30;107370;1254;82535;-59
2023/02/20 03:51:11;;;;;;;6.40;2.70;;;;;;;0.90;77.23;100471.09;107394;1254;100135;-58
2023/02/20 03:53:50;;;;;;;8.20;3.10;;;;;;;0.87;77.24;100471.60;107365;1254;88677;-62
2023/02/20 03:56:30;;;;;;;6.70;2.60;;;;;;;0.81;77.24;100472.41;107366;1254;94549;-63
2023/02/20 03:59:15;;;;;;;8.20;2.90;;;;;;;0.77;77.40;100468.86;107346;1254;81209;-60
2023/02/20 04:01:58;;;;;;;8.40;3.30;;;;;;;0.74;77.46;100464.82;107416;1254;83023;-61
2023/02/20 04:04:44;;;;;;;8.50;3.00;;;;;;;0.74;77.61;100471.23;107373;1254;98371;-59
2023/02/20 04:07:34;;;;;;;6.20;2.80;;;;;;;0.76;77.63;100473.20;107335;1254;88887;-58
2023/02/20 04:10:20;;;;;;;7.00;2.50;;;;;;;0.78;77.74;100473.02;107398;1254;95458;-59
2023/02/20 04:13:02;;;;;;;;;;;;;;;0.78;77.75;100469.33;107376;1257;81248;-59
2023/02/20 04:15:40;;;;;;;8.50;2.70;;;;;;;0.78;77.72;100465.94;107390;1254;81919;-63
2023/02/20 04:18:18;;;;;;;6.70;2.60;;;;;;;0.75;77.67;100467.77;107382;1255;99695;-62
2023/02/20 04:20:56;;;;;;;9.00;3.10;;;;;;;0.71;77.72;100457.70;107404;1254;89732;-61
2023/02/20 04:23:49;;;;;;;6.10;2.80;;;;;;;0.65;77.75;100455.27;107324;1252;95623;-57
2023/02/20 04:26:24;;;;;;;12.10;3.00;;;;;;;0.59;77.79;100457.75;107386;1254;78944;-57
2023/02/20 04:29:07;;;;;;;8.80;3.00;;;;;;;0.54;77.78;100452.48;107376;1254;80554;-57
2023/02/20 04:31:42;;;;;;;7.90;2.90;;;;;;;0.52;77.97;100455.77;107380;1254;97892;-56
2023/02/20 04:34:24;;;;;;;6.60;2.60;;;;;;;0.51;78.02;100454.15;107369;1254;88711;-62
2023/02/20 04:37:09;;;;;;;6.30;2.60;;;;;;;0.50;78.19;100452.08;107367;1255;94071;-62
2023/02/20 04:39:58;;;;;;;5.30;2.30;;;;;;;0.53;78.30;100444.08;107383;1254;78376;-62
2023/02/20 04:42:40;;;;;;;6.20;2.70;;;;;;;0.55;78.39;100436.76;107385;1254;81868;-62
2023/02/20 04:45:19;;;;;;;7.80;2.70;;;;;;;0.55;78.34;100432.33;107365;1254;98712;-61
2023/02/20 04:48:04;;;;;;;7.20;3.20;;;;;;;0.56;78.46;100428.04;107369;1254;85820;-61
2023/02/20 04:50:48;;;;;;;6.10;2.60;;;;;;;0.58;78.51;100420.63;107392;1258;95343;-59
2023/02/20 04:53:28;;;;;;;6.60;2.40;;;;;;;0.59;78.57;100418.53;107095;1254;353277;-62
2023/02/20 04:56:08;;;;;;;8.90;2.30;;;;;;;0.61;78.62;100420.86;107368;1254;79952;-62
2023/02/20 04:58:48;;;;;;;6.20;2.50;;;;;;;0.64;78.78;100419.40;107416;1254;99662;-59
2023/02/20 05:01:29;;;;;;;7.30;2.30;;;;;;;0.68;78.81;100419.93;107362;1255;87926;-58
2023/02/20 05:04:08;;;;;;;7.30;2.50;;;;;;;0.74;78.76;100415.37;107420;1254;94823;-57
2023/02/20 05:06:50;;;;;;;7.80;2.70;;;;;;;0.79;78.77;100412.15;107392;1254;79804;-57
2023/02/20 05:09:35;;;;;;;6.80;2.60;;;;;;;0.80;78.87;100405.81;107364;1255;83602;-58
2023/02/20 05:12:21;;;;;;;7.70;2.10;;;;;;;0.82;78.87;100403.41;107347;1254;99067;-57
2023/02/20 05:15:06;;;;;;;5.00;2.30;;;;;;;0.84;79.02;100395.07;107365;1255;89451;-62
2023/02/20 05:17:48;;;;;;;5.80;2.10;;;;;;;0.88;78.92;100391.00;107347;1258;95211;-62
2023/02/20 05:22:17;;;;;;;6.80;2.50;;;;;;;0.91;79.07;100388.59;107365;1254;79710;-62
2023/02/20 05:23:20;;;;;;;5.70;2.30;;;;;;;0.96;79.08;100382.10;107371;1255;82217;-60
2023/02/20 05:26:01;;;;;;;6.90;2.80;;;;;;;1.00;79.16;100380.37;107385;1254;98836;-62
2023/02/20 05:28:39;;;;;;;7.10;3.20;;;;;;;1.06;79.23;100378.84;107357;1254;89195;-58
2023/02/20 05:31:21;;;;;;;7.30;3.10;;;;;;;1.07;79.24;100379.75;107400;1254;95611;-59
2023/02/20 05:34:01;;;;;;;7.60;3.40;;;;;;;1.08;79.20;100385.02;107350;1254;80221;-62
2023/02/20 05:36:40;;;;;;;8.80;3.30;;;;;;;1.09;79.25;100394.71;107359;1254;82991;-62
2023/02/20 05:39:25;;;;;;;7.00;2.90;;;;;;;1.09;79.34;100400.91;107352;1255;98409;-57
2023/02/20 05:42:07;;;;;;;7.30;2.70;;;;;;;1.12;79.42;100390.37;107344;1254;89647;-58
2023/02/20 05:44:51;;;;;;;6.70;2.60;;;;;;;1.17;79.42;100384.63;107379;1254;93881;-59
2023/02/20 05:47:30;;;;;;;6.60;3.00;;;;;;;1.20;79.40;100377.93;107410;1256;79772;-59
2023/02/20 05:50:08;;;;;;;9.70;3.40;;;;;;;1.23;79.41;100364.48;107350;1254;81210;-57
2023/02/20 05:52:51;;;;;;;8.40;2.60;;;;;;;1.25;79.57;100353.26;107369;1254;99695;-57
2023/02/20 05:55:31;;;;;;;5.30;2.60;;;;;;;1.26;79.41;100358.67;107385;1256;89160;-61
2023/02/20 05:58:11;;;;;;;7.30;2.70;;;;;;;1.24;79.30;100364.13;107366;1254;95433;-61
2023/02/20 06:00:51;;;;;;;7.50;2.70;;;;;;;1.26;79.38;100356.20;107343;1254;81310;-61
2023/02/20 06:03:36;;;;;;;8.00;2.20;;;;;;;1.28;79.44;100353.14;107335;1254;82987;-61
2023/02/20 06:06:18;;;;;;;7.40;2.80;;;;;;;1.31;79.32;100348.14;107357;1255;99000;-61
2023/02/20 06:08:59;;;;;;;8.40;2.80;;;;;;;1.35;79.43;100350.27;107347;1254;88275;-62
2023/02/20 06:11:44;;;;;;;8.50;3.10;;;;;;;1.38;79.53;100356.16;107409;1254;94251;-63
2023/02/20 06:14:29;;;;;;;12.10;4.30;;;;;;;1.42;79.46;100353.33;107360;1255;79476;-59
2023/02/20 06:17:15;;;;;;;5.50;2.40;;;;;;;1.52;79.62;100344.47;107349;1255;82508;-60
2023/02/20 06:20:02;;;;;;;6.20;2.00;;;;;;;1.59;79.53;100333.23;107375;1254;99922;-61
2023/02/20 06:22:42;;;;;;;8.20;3.10;;;;;;;1.67;79.52;100336.09;107343;1255;88794;-61
2023/02/20 06:25:19;;;;;;;10.50;3.40;;;;;;;1.70;79.31;100333.23;107391;1255;95053;-60
2023/02/20 06:28:01;;;;;;;6.90;2.60;;;;;;;1.75;79.42;100328.61;107368;1256;79494;-61
2023/02/20 06:30:43;;;;;;;7.40;3.20;;;;;;;1.80;79.50;100327.23;107356;1254;81096;-57
2023/02/20 06:33:25;;;;;;;5.10;2.50;;;;;;;1.86;79.38;100327.50;107375;1254;97081;-58
2023/02/20 06:36:03;;;;;;;8.50;2.70;;;;;;;1.92;79.27;100326.03;107386;1254;87278;-60
2023/02/20 06:38:45;;;;;;;6.50;2.90;;;;;;;1.97;79.35;100317.27;107328;1257;94091;-60
2023/02/20 06:41:30;;;;;;;9.60;2.70;;;;;;;2.01;79.32;100311.70;107365;1255;79887;-60
2023/02/20 06:44:07;;;;;;;8.20;3.40;;;;;;;2.06;79.30;100310.25;107320;1258;81583;-58
2023/02/20 06:46:42;;;;;;;9.40;3.10;;;;;;;2.10;79.39;100310.04;107365;1255;97249;-58
2023/02/20 06:49:19;;;;;;;9.10;3.10;;;;;;;2.14;79.31;100316.20;107383;1255;89139;-61
2023/02/20 06:52:06;;;;;;;7.60;3.10;;;;;;;2.21;79.32;100313.58;107375;1255;94780;-62
2023/02/20 06:54:53;;;;;;;8.90;3.40;;;;;;;2.29;79.17;100305.59;107356;1254;78775;-63
2023/02/20 06:57:36;;;;;;;8.00;2.90;;;;;;;2.41;79.27;100300.27;107380;1255;82323;-62
2023/02/20 07:00:15;;;;;;;7.90;3.20;;;;;;;2.54;79.06;100295.69;107350;1254;97518;-57
2023/02/20 07:02:59;;;;;;;10.50;4.20;;;;;;;2.65;79.02;100299.63;107346;1254;89136;-57
2023/02/20 07:05:37;;;;;;;7.50;3.90;;;;;;;2.77;78.86;100298.47;107338;1254;93326;-63
2023/02/20 07:08:13;;;;;;;10.00;3.70;;;;;;;2.86;78.83;100298.71;107365;1254;81229;-61
2023/02/20 07:10:54;;;;;;;8.40;3.20;;;;;;;2.96;78.65;100302.20;107356;1255;81213;-62
2023/02/20 07:13:36;;;;;;;8.20;3.20;;;;;;;3.03;78.64;100287.47;107344;1256;100306;-62
2023/02/20 07:16:11;;;;;;;9.10;3.30;;;;;;;3.14;78.73;100280.63;107379;1255;88105;-62
2023/02/20 07:18:52;;;;;;;9.30;3.80;;;;;;;3.27;78.70;100281.11;107349;1257;91924;-62
2023/02/20 07:21:34;;;;;;;6.80;3.40;;;;;;;3.44;78.53;100283.05;107321;1254;79749;-63
2023/02/20 07:24:10;;;;;;;10.50;3.50;;;;;;;3.58;78.46;100282.73;107390;1258;81736;-63
2023/02/20 07:26:52;;;;;;;9.00;3.40;;;;;;;3.64;78.53;100286.10;107342;1254;99784;-61
2023/02/20 07:29:35;;;;;;;8.90;3.80;;;;;;;3.72;78.56;100282.45;107349;1255;88355;-57
2023/02/20 07:32:19;;;;;;;10.70;3.50;;;;;;;3.79;78.18;100279.19;107384;1257;95846;-57
2023/02/20 07:35:05;;;;;;;7.90;3.10;;;;;;;3.92;78.11;100277.57;107343;1258;79252;-57
2023/02/20 07:37:43;;;;;;;6.80;3.30;;;;;;;4.03;77.56;100284.85;107389;1254;80878;-62
2023/02/20 07:40:17;;;;;;;8.10;3.30;;;;;;;4.09;77.72;100278.92;107351;1255;99724;-62
2023/02/20 07:43:04;;;;;;;7.90;3.50;;;;;;;4.07;77.57;100285.52;107325;1255;89369;-59
2023/02/20 07:45:41;;;;;;;8.00;2.90;;;;;;;4.06;77.53;100281.84;107329;1254;93726;-60
2023/02/20 07:48:21;;;;;;;7.70;4.10;;;;;;;4.01;77.62;100278.84;107369;1258;80330;-60
2023/02/20 07:51:02;;;;;;;7.50;3.30;;;;;;;4.02;77.49;100271.99;107347;1253;83275;-61
2023/02/20 07:53:47;;;;;;;8.70;3.50;;;;;;;4.10;77.48;100257.45;107375;1255;99507;-58
2023/02/20 07:56:26;;;;;;;7.60;3.50;;;;;;;4.26;77.14;100249.28;107328;1255;88645;-58
2023/02/20 07:59:03;;;;;;;9.20;3.50;;;;;;;4.38;77.33;100242.18;107314;1255;93393;-60
2023/02/20 08:01:38;;;;;;;11.00;4.20;;;;;;;4.49;77.19;100233.35;107365;1257;78966;-62
2023/02/20 08:04:15;;;;;;;8.40;3.80;;;;;;;4.58;76.96;100219.04;107405;1255;82782;-58
2023/02/20 08:06:50;;;;;;;9.20;3.60;;;;;;;4.65;76.70;100210.31;107325;1254;98911;-58
2023/02/20 08:09:27;;;;;;;10.00;4.20;;;;;;;4.73;76.70;100205.05;107352;1256;87775;-56
2023/02/20 08:12:11;;;;;;;9.00;3.50;;;;;;;4.77;76.72;100194.27;107322;1254;94426;-56
2023/02/20 08:14:46;;;;;;;9.80;3.70;;;;;;;4.79;76.59;100197.13;107344;1256;77135;-56
2023/02/20 08:17:24;;;;;;;9.20;3.80;;;;;;;4.72;76.34;100194.61;107324;1255;82736;-57
2023/02/20 08:20:06;;;;;;;7.70;3.10;;;;;;;4.73;76.61;100188.42;107318;1255;99445;-59
2023/02/20 08:22:43;;;;;;;7.30;3.40;;;;;;;4.75;76.22;100185.80;107362;1258;88988;-58
2023/02/20 08:25:22;;;;;;;9.10;2.90;;;;;;;4.70;76.15;100176.43;107355;1255;92271;-60
2023/02/20 08:27:59;;;;;;;9.10;3.50;;;;;;;4.70;76.39;100178.58;107309;1256;79080;-57
2023/02/20 08:30:41;;;;;;;8.00;3.40;;;;;;;4.75;76.62;100170.61;107383;1254;82816;-56
2023/02/20 08:33:25;;;;;;;6.00;3.20;;;;;;;4.75;76.77;100162.36;107294;1256;99259;-60
2023/02/20 08:36:05;;;;;;;12.90;3.60;;;;;;;4.73;76.79;100158.69;107344;1255;89335;-59
2023/02/20 08:39:02;;;;;;;8.30;4.50;;;;;;;4.70;76.71;100151.67;107432;1253;95443;-56
2023/02/20 08:41:44;;;;;;;9.70;3.70;;;;;;;4.56;76.68;100151.16;107588;1254;80312;-60
2023/02/20 08:44:22;;;;;;;5.90;2.90;;;;;;;4.43;76.78;100146.84;107459;1256;82041;-56
2023/02/20 08:47:02;;;;;;;6.60;3.30;;;;;;;4.32;77.11;100139.74;107296;1257;97329;-59
2023/02/20 08:49:42;;;;;;;7.10;4.10;;;;;;;4.22;77.50;100138.70;107340;1256;88989;-60
2023/02/20 08:52:26;;;;;;;7.50;3.00;;;;;;;4.16;77.79;100140.13;107328;1256;93721;-61
2023/02/20 08:55:13;;;;;;;8.80;3.50;;;;;;;4.17;77.99;100135.23;107367;1255;79010;-60
2023/02/20 08:57:59;;;;;;;7.40;3.60;;;;;;;4.14;78.44;100132.83;107336;1256;83509;-59
2023/02/20 09:00:37;;;;;;;8.60;3.90;;;;;;;4.08;78.42;100130.20;107346;1254;98294;-59
2023/02/20 09:03:23;;;;;;;8.50;4.10;;;;;;;4.03;78.67;100119.50;107335;1254;87370;-59
2023/02/20 09:06:00;;;;;;;7.20;3.90;;;;;;;3.93;79.11;100112.14;107296;1255;94528;-59
2023/02/20 09:08:46;;;;;;;9.20;4.20;;;;;;;3.87;79.19;100105.14;107436;1257;81370;-61
2023/02/20 09:11:28;;;;;;;9.30;4.30;;;;;;;3.77;79.54;100092.27;107533;1254;79543;-62
2023/02/20 09:14:14;;;;;;;10.50;4.50;;;;;;;3.71;79.95;100082.52;107522;1254;98046;-59
2023/02/20 09:16:55;;;;;;;8.30;4.40;;;;;;;3.66;80.19;100074.12;107542;1253;88500;-58
2023/02/20 09:19:37;;;;;;;10.70;4.60;;;;;;;3.63;80.64;100065.95;107563;1253;93314;-60
2023/02/20 09:22:24;;;;;;;9.00;5.20;;;;;;;3.56;81.11;100057.55;107343;1255;81447;-63
2023/02/20 09:25:03;;;;;;;5.70;4.10;;;;;;;3.50;81.20;100048.54;107344;1255;82089;-59
2023/02/20 09:27:41;;;;;;;10.40;4.80;;;;;;;3.42;81.33;100036.71;107300;1254;96883;-59
2023/02/20 09:30:33;;;;;;;9.00;5.20;;;;;;;3.45;81.51;100027.17;107375;1256;88578;-62
2023/02/20 09:33:16;;;;;;;9.90;5.30;;;;;;;3.44;81.86;100012.44;107297;1258;94450;-62
2023/02/20 09:36:03;;;;;;;11.20;5.60;;;;;;;3.42;81.85;99996.80;107300;1254;77422;-62
2023/02/20 09:38:45;;;;;;;11.60;5.40;;;;;;;3.36;82.52;99986.52;107210;1254;83522;-59
2023/02/20 09:41:38;;;;;;;9.00;5.20;;;;;;;3.24;82.60;99979.06;107251;1256;99556;-60
2023/02/20 09:44:23;;;;;;;7.50;5.10;;;;;;;3.22;82.64;99969.69;107351;1256;87317;-62
2023/02/20 09:47:26;;;;;;;10.20;4.90;;;;;;;3.20;82.97;99968.13;107294;1256;94242;-62
2023/02/20 09:50:14;;;;;;;10.20;5.30;;;;;;;3.19;83.35;99961.06;107358;1256;81134;-61
2023/02/20 09:53:07;;;;;;;9.40;5.20;;;;;;;3.22;83.43;99948.88;107294;1258;82744;-60
2023/02/20 09:55:48;;;;;;;9.10;5.40;;;;;;;3.22;83.57;99931.77;107346;1258;97484;-60
2023/02/20 09:58:39;;;;;;;13.30;5.40;;;;;;;3.26;83.53;99918.71;107370;1256;88426;-60
2023/02/20 10:01:18;;;;;;;9.30;5.50;;;;;;;3.24;84.07;99914.52;107326;1255;95333;-59
2023/02/20 10:03:58;;;;;;;9.60;5.80;;;;;;;3.22;83.88;99914.67;107358;1254;80729;-61
2023/02/20 10:06:36;;;;;;;8.90;5.60;;;;;;;3.22;84.00;99907.71;107356;1256;81379;-61
2023/02/20 10:09:17;;;;;;;12.70;6.50;;;;;;;3.20;84.01;99897.29;107354;1254;99670;-61
2023/02/20 10:12:11;;;;;;;11.60;6.50;;;;;;;3.16;84.30;99891.24;107345;1258;88512;-58
2023/02/20 10:15:05;;;;;;;8.60;6.10;;;;;;;3.13;84.56;99880.54;107352;1255;95568;-61
2023/02/20 10:17:56;;;;;;;10.50;6.80;;;;;;;3.09;84.78;99874.58;107329;1256;80559;-61
2023/02/20 10:20:50;;;;;;;11.00;6.40;;;;;;;3.08;84.84;99871.50;107331;1255;80292;-62
2023/02/20 10:23:40;;;;;;;10.50;6.00;;;;;;;3.11;85.05;99860.33;107329;1258;99229;-60
2023/02/20 10:26:23;;;;;;;9.00;6.10;;;;;;;3.14;85.09;99859.47;107317;1258;87638;-59
2023/02/20 10:29:15;;;;;;;9.40;6.70;;;;;;;3.17;85.30;99850.85;107336;1254;93458;-61
2023/02/20 10:32:02;;;;;;;7.60;5.30;;;;;;;3.20;85.62;99844.81;107288;1253;81480;-59
2023/02/20 10:34:50;;;;;;;8.20;6.30;;;;;;;3.16;85.69;99837.90;107300;1256;81862;-59
2023/02/20 10:37:36;;;;;;;8.50;5.80;;;;;;;3.16;86.21;99828.45;107303;1256;99716;-59
2023/02/20 10:40:24;;;;;;;9.70;5.80;;;;;;;3.18;86.59;99816.36;107308;1254;87297;-61
2023/02/20 10:43:09;;;;;;;8.20;5.80;;;;;;;3.20;86.31;99809.58;107299;1258;93753;-57
2023/02/20 10:45:58;;;;;;;9.50;5.80;;;;;;;3.26;86.46;99806.52;107316;1254;80517;-61
2023/02/20 10:48:41;;;;;;;7.40;5.30;;;;;;;3.24;86.32;99799.23;107326;1253;82967;-63
2023/02/20 10:51:28;;;;;;;9.10;5.30;;;;;;;3.23;86.31;99799.66;107304;1256;98624;-62
2023/02/20 10:54:11;;;;;;;8.70;6.00;;;;;;;3.26;86.70;99791.33;107345;1254;89684;-58
2023/02/20 10:56:58;;;;;;;7.40;5.50;;;;;;;3.26;86.63;99784.17;107322;1254;94861;-58
2023/02/20 10:59:48;;;;;;;8.80;5.90;;;;;;;3.25;86.69;99776.46;107319;1254;80466;-59
2023/02/20 11:02:33;;;;;;;8.40;5.30;;;;;;;3.23;87.03;99767.99;107273;1258;83120;-58
2023/02/20 11:05:18;;;;;;;8.30;5.30;;;;;;;3.17;86.70;99760.79;107366;1256;97750;-60
2023/02/20 11:08:01;;;;;;;7.40;5.30;;;;;;;3.16;86.99;99755.89;107326;1256;88105;-59
2023/02/20 11:10:47;;;;;;;8.70;5.60;;;;;;;3.13;86.92;99745.75;107315;1254;95103;-62
2023/02/20 11:13:25;;;;;;;7.50;5.40;;;;;;;3.14;86.80;99746.83;107302;1254;81306;-59
2023/02/20 11:16:15;;;;;;;7.80;5.50;;;;;;;3.17;86.78;99734.08;107343;1254;81354;-61
2023/02/20 11:19:01;;;;;;;6.40;5.10;;;;;;;3.14;86.64;99706.70;107304;1258;99140;-59
2023/02/20 11:21:42;;;;;;;7.10;5.50;;;;;;;3.06;87.16;99648.80;107345;1258;88271;-60
2023/02/20 11:24:41;;;;;;;8.10;5.40;;;;;;;2.99;87.34;99603.11;107336;1254;92542;-57
2023/02/20 11:27:25;;;;;;;7.10;5.20;;;;;;;2.93;87.14;99639.96;107304;1256;82115;-59
2023/02/20 11:30:22;;;;;;;9.00;5.40;;;;;;;2.96;87.46;99609.59;107323;1256;82374;-58
2023/02/20 11:33:05;;;;;;;10.80;5.90;;;;;;;3.02;87.57;99611.52;107326;1258;99704;-58
2023/02/20 11:35:45;;;;;;;8.80;5.90;;;;;;;3.10;87.79;99581.90;107346;1254;88045;-61
2023/02/20 11:38:37;;;;;;;9.40;5.70;;;;;;;3.15;87.90;99576.45;107295;1254;94885;-61
2023/02/20 11:41:31;;;;;;;7.50;6.00;;;;;;;3.16;87.84;99584.38;107302;1258;80405;-58
2023/02/20 11:44:33;;;;;;;8.10;6.30;;;;;;;3.20;88.18;99557.59;107338;1254;83251;-59
2023/02/20 11:47:33;;;;;;;8.70;5.90;;;;;;;3.30;88.90;99538.20;107311;1255;98933;-58
2023/02/20 11:50:20;;;;;;;10.20;6.00;;;;;;;3.38;88.95;99527.60;107317;1256;88996;-58
2023/02/20 11:53:06;;;;;;;8.70;6.40;;;;;;;3.45;88.87;99512.63;107281;1254;94479;-58
2023/02/20 11:55:47;;;;;;;9.90;6.80;;;;;;;3.49;88.90;99507.89;107323;1256;81187;-60
2023/02/20 11:58:34;;;;;;;15.20;7.40;;;;;;;3.56;88.82;99499.25;107337;1254;82541;-58
2023/02/20 12:01:34;;;;;;;9.90;6.90;;;;;;;3.62;89.12;99483.66;107331;1256;99195;-62
2023/02/20 12:04:25;;;;;;;8.60;6.30;;;;;;;3.64;88.96;99468.48;107351;1257;88722;-61
2023/02/20 12:07:18;;;;;;;11.00;7.30;;;;;;;3.69;89.22;99449.37;107276;1258;95269;-59
2023/02/20 12:09:58;;;;;;;9.70;7.00;;;;;;;3.80;89.23;99426.92;107314;1254;81379;-58
2023/02/20 12:12:38;;;;;;;9.20;6.60;;;;;;;3.89;89.91;99401.48;107320;1254;83036;-59
2023/02/20 12:15:28;;;;;;;9.80;7.00;;;;;;;3.94;90.12;99382.44;107335;1254;100264;-60
2023/02/20 12:18:26;;;;;;;10.70;6.50;;;;;;;3.99;90.08;99386.82;107391;1254;88745;-55
2023/02/20 12:21:36;;;;;;;12.00;7.00;;;;;;;4.06;89.77;99403.91;107329;1257;95074;-61
2023/02/20 12:24:49;;;;;;;9.90;6.60;;;;;;;4.10;90.28;99398.29;107327;1256;81280;-56
2023/02/20 12:27:55;;;;;;;10.30;7.40;;;;;;;4.14;89.89;99404.35;107362;1258;83058;-62
2023/02/20 12:30:49;;;;;;;9.60;7.20;;;;;;;4.24;89.67;99398.63;107307;1254;99238;-60
2023/02/20 12:33:47;;;;;;;10.60;7.10;;;;;;;4.29;89.60;99387.21;107326;1256;87026;-59
2023/02/20 12:36:38;;;;;;;10.50;7.40;;;;;;;4.36;89.77;99383.87;107315;1257;95198;-58
2023/02/20 12:39:31;;;;;;;10.60;7.50;;;;;;;4.45;89.52;99391.44;107307;1259;80519;-57
2023/02/20 12:42:21;;;;;;;11.30;8.00;;;;;;;4.54;89.58;99409.95;107307;1254;82985;-57
2023/02/20 12:45:19;;;;;;;11.20;7.90;;;;;;;4.61;89.66;99394.61;107332;1258;97754;-62
2023/02/20 12:48:16;;;;;;;10.10;7.10;;;;;;;4.70;90.03;99390.77;107298;1256;87599;-60
2023/02/20 12:51:08;;;;;;;11.40;8.00;;;;;;;4.76;89.68;99391.67;107352;1258;95591;-59
2023/02/20 12:54:07;;;;;;;11.20;7.20;;;;;;;4.80;89.64;99394.08;107105;1258;81608;-57
2023/02/20 12:57:03;;;;;;;11.10;7.30;;;;;;;4.86;89.59;99392.17;107318;1255;82078;-57
2023/02/20 12:59:56;;;;;;;10.80;7.40;;;;;;;4.88;89.58;99390.52;107318;1255;99724;-58
2023/02/20 13:02:35;;;;;;;12.30;7.70;;;;;;;4.93;89.67;99379.45;107324;1258;86997;-57